createdAt,value
2023-07-05T00:01:41.750Z,5.97
2023-07-05T00:04:11.723Z,6.60
2023-07-05T00:06:41.880Z,6.25
2023-07-05T00:09:10.489Z,6.90
2023-07-05T00:11:39.157Z,6.80
2023-07-05T00:14:07.869Z,7.28
2023-07-05T00:16:36.605Z,6.55
2023-07-05T00:19:05.222Z,7.07
2023-07-05T00:21:33.774Z,6.63
2023-07-05T00:24:04.264Z,6.40
2023-07-05T00:26:32.885Z,7.30
2023-07-05T00:29:01.523Z,6.93
2023-07-05T00:31:30.274Z,6.72
2023-07-05T00:33:58.885Z,7.10
2023-07-05T00:36:28.416Z,6.78
2023-07-05T00:38:57.396Z,6.82
2023-07-05T00:41:27.620Z,6.85
2023-07-05T00:44:25.135Z,6.72
2023-07-05T00:47:01.011Z,7.10
2023-07-05T00:50:25.866Z,7.07
2023-07-05T00:53:40.849Z,6.53
2023-07-05T00:57:18.966Z,6.45
2023-07-05T01:00:42.877Z,7.30
2023-07-05T01:04:06.593Z,7.25
2023-07-05T01:07:28.107Z,6.78
2023-07-05T01:10:48.415Z,7.22
2023-07-05T01:14:20.347Z,6.82
2023-07-05T01:17:57.829Z,6.93
2023-07-05T01:21:26.493Z,6.82
2023-07-05T01:25:01.261Z,7.32
2023-07-05T01:28:08.364Z,7.10
2023-07-05T01:31:46.892Z,6.70
2023-07-05T01:34:41.114Z,7.03
2023-07-05T01:37:11.912Z,7.63
2023-07-05T01:39:40.692Z,7.30
2023-07-05T01:42:10.347Z,7.30
2023-07-05T01:44:39.605Z,7.07
2023-07-05T01:47:15.119Z,7.68
2023-07-05T01:49:53.193Z,7.40
2023-07-05T01:52:30.897Z,8.00
2023-07-05T01:55:07.090Z,7.47
2023-07-05T01:57:40.870Z,7.43
2023-07-05T02:00:12.881Z,7.28
2023-07-05T02:03:38.309Z,7.35
2023-07-05T02:06:09.322Z,7.50
2023-07-05T02:08:41.574Z,7.10
2023-07-05T02:11:11.277Z,7.60
2023-07-05T02:13:40.712Z,7.47
2023-07-05T02:16:09.598Z,7.40
2023-07-05T02:18:39.880Z,7.85
2023-07-05T02:21:11.222Z,7.47
2023-07-05T02:23:40.155Z,7.82
2023-07-05T02:26:09.687Z,7.70
2023-07-05T02:28:38.777Z,7.35
2023-07-05T02:31:08.399Z,6.85
2023-07-05T02:33:38.975Z,7.22
2023-07-05T02:36:12.659Z,7.55
2023-07-05T02:38:42.527Z,10.32
2023-07-05T02:41:11.664Z,9.70
2023-07-05T02:43:40.509Z,9.70
2023-07-05T02:46:09.463Z,10.10
2023-07-05T02:48:40.627Z,9.60
2023-07-05T02:51:09.490Z,10.00
2023-07-05T02:53:38.314Z,9.80
2023-07-05T02:56:07.209Z,8.73
2023-07-05T02:58:36.189Z,9.00
2023-07-05T03:01:06.884Z,10.20
2023-07-05T03:03:35.739Z,9.50
2023-07-05T03:06:06.981Z,9.95
2023-07-05T03:08:36.131Z,10.57
2023-07-05T03:11:05.162Z,9.93
2023-07-05T03:13:36.233Z,10.60
2023-07-05T03:16:06.465Z,9.82
2023-07-05T03:18:35.326Z,9.52
2023-07-05T03:21:05.858Z,8.73
2023-07-05T03:23:34.466Z,8.65
2023-07-05T03:26:09.009Z,8.18
2023-07-05T03:28:39.699Z,7.80
2023-07-05T03:31:12.199Z,8.02
2023-07-05T03:33:43.571Z,8.20
2023-07-05T03:36:24.983Z,7.75
2023-07-05T03:39:12.929Z,7.95
2023-07-05T03:42:04.164Z,8.07
2023-07-05T03:44:32.978Z,8.82
2023-07-05T03:47:03.007Z,9.30
2023-07-05T03:49:31.943Z,8.52
2023-07-05T03:52:02.501Z,7.70
2023-07-05T03:54:31.913Z,8.65
2023-07-05T03:57:01.535Z,8.13
2023-07-05T03:59:30.735Z,7.55
2023-07-05T04:02:01.147Z,7.50
2023-07-05T04:04:30.193Z,7.00
2023-07-05T04:07:00.570Z,7.13
2023-07-05T04:09:32.229Z,6.85
2023-07-05T04:12:14.809Z,7.00
2023-07-05T04:14:47.462Z,7.60
2023-07-05T04:17:18.829Z,7.72
2023-07-05T04:19:47.895Z,7.03
2023-07-05T04:22:16.890Z,8.20
2023-07-05T04:24:47.472Z,7.25
2023-07-05T04:27:17.552Z,7.72
2023-07-05T04:29:46.499Z,8.13
2023-07-05T04:32:16.352Z,8.40
2023-07-05T04:34:45.732Z,8.15
2023-07-05T04:37:17.281Z,7.40
2023-07-05T04:39:52.963Z,8.10
2023-07-05T04:42:22.001Z,9.13
2023-07-05T04:45:43.437Z,8.60
2023-07-05T04:49:04.912Z,8.60
2023-07-05T04:52:26.321Z,8.25
2023-07-05T04:55:50.522Z,8.52
2023-07-05T04:59:12.703Z,9.20
2023-07-05T05:02:34.607Z,8.88
2023-07-05T05:05:56.501Z,8.23
2023-07-05T05:09:18.383Z,9.50
2023-07-05T05:12:41.304Z,8.77
2023-07-05T05:16:03.114Z,9.98
2023-07-05T05:19:25.936Z,8.90
2023-07-05T05:22:47.265Z,10.30
2023-07-05T05:26:08.707Z,9.23
2023-07-05T05:29:31.583Z,8.93
2023-07-05T05:32:53.051Z,9.30
2023-07-05T05:36:14.524Z,9.43
2023-07-05T05:39:36.019Z,9.10
2023-07-05T05:42:57.842Z,8.25
2023-07-05T05:46:21.727Z,9.15
2023-07-05T05:49:45.271Z,9.23
2023-07-05T05:53:06.677Z,6.28
2023-07-05T05:56:28.113Z,7.32
2023-07-05T05:59:49.508Z,7.78
2023-07-05T06:03:12.403Z,6.80
2023-07-05T06:06:33.941Z,9.30
2023-07-05T06:09:55.829Z,8.48
2023-07-05T06:13:17.191Z,7.75
2023-07-05T06:16:38.619Z,8.18
2023-07-05T06:20:01.498Z,8.15
2023-07-05T06:23:22.998Z,9.93
2023-07-05T06:26:45.298Z,8.02
2023-07-05T06:30:07.555Z,8.55
2023-07-05T06:33:28.963Z,7.97
2023-07-05T06:36:51.828Z,7.88
2023-07-05T06:40:13.799Z,6.68
2023-07-05T06:43:35.410Z,6.43
2023-07-05T06:46:57.026Z,5.93
2023-07-05T06:50:18.747Z,6.00
2023-07-05T06:53:49.012Z,6.85
2023-07-05T06:57:11.358Z,9.15
2023-07-05T07:00:32.960Z,7.03
2023-07-05T07:03:54.543Z,9.48
2023-07-05T07:07:15.980Z,8.02
2023-07-05T07:10:38.848Z,6.75
2023-07-05T07:14:00.694Z,6.68
2023-07-05T07:17:22.223Z,6.05
2023-07-05T07:20:43.851Z,5.43
2023-07-05T07:24:05.679Z,4.78
2023-07-05T07:27:28.544Z,5.88
2023-07-05T07:30:49.991Z,5.90
2023-07-05T07:34:11.811Z,6.20
2023-07-05T07:37:33.541Z,5.50
2023-07-05T07:40:55.300Z,5.45
2023-07-05T07:44:20.418Z,6.03
2023-07-05T07:47:42.062Z,5.65
2023-07-05T07:51:00.491Z,5.22
2023-07-05T07:54:27.376Z,6.13
2023-07-05T07:57:49.618Z,8.35
2023-07-05T08:01:14.084Z,9.63
2023-07-05T08:04:35.881Z,7.60
2023-07-05T08:07:57.495Z,6.00
2023-07-05T08:11:18.871Z,5.18
2023-07-05T08:13:50.156Z,6.80
2023-07-05T08:17:13.088Z,4.68
2023-07-05T08:20:34.954Z,5.53
2023-07-05T08:23:56.457Z,4.22
2023-07-05T08:27:18.120Z,4.55
2023-07-05T08:30:40.336Z,4.30
2023-07-05T08:34:03.820Z,3.80
2023-07-05T08:37:28.470Z,4.10
2023-07-05T08:40:53.722Z,4.97
2023-07-05T08:44:35.565Z,8.48
2023-07-05T08:48:13.063Z,5.10
2023-07-05T08:51:38.780Z,4.13
2023-07-05T08:55:03.071Z,5.68
2023-07-05T08:58:31.255Z,4.03
2023-07-05T09:01:57.249Z,4.63
2023-07-05T09:05:25.610Z,4.70
2023-07-05T09:09:00.468Z,4.93
2023-07-05T09:12:39.862Z,4.50
2023-07-05T09:16:17.375Z,4.97
2023-07-05T09:19:59.122Z,3.58
2023-07-05T09:23:28.774Z,4.93
2023-07-05T09:26:58.045Z,4.00
2023-07-05T09:30:28.153Z,4.18
2023-07-05T09:33:06.476Z,4.72
2023-07-05T09:36:31.602Z,6.45
2023-07-05T09:40:08.377Z,5.80
2023-07-05T09:43:35.649Z,4.93
2023-07-05T09:46:59.297Z,4.93
2023-07-05T09:50:25.286Z,5.38
2023-07-05T09:53:53.750Z,4.20
2023-07-05T09:57:23.913Z,5.10
2023-07-05T10:00:46.344Z,5.00
2023-07-05T10:04:10.319Z,5.43
2023-07-05T10:07:34.109Z,4.50
2023-07-05T10:10:58.609Z,5.20
2023-07-05T10:14:22.252Z,4.85
2023-07-05T10:17:46.460Z,4.82
2023-07-05T10:21:15.843Z,4.40
2023-07-05T10:24:43.006Z,4.57
2023-07-05T10:28:16.741Z,4.15
2023-07-05T10:31:52.957Z,4.78
2023-07-05T10:35:20.967Z,4.88
2023-07-05T10:38:47.094Z,4.97
2023-07-05T10:42:12.547Z,5.15
2023-07-05T10:45:36.172Z,4.15
2023-07-05T10:48:58.827Z,4.95
2023-07-05T10:52:22.356Z,5.28
2023-07-05T10:55:47.621Z,4.50
2023-07-05T10:59:15.450Z,5.10
2023-07-05T11:02:46.895Z,5.05
2023-07-05T11:06:17.446Z,8.57
2023-07-05T11:09:39.531Z,5.10
2023-07-05T11:13:20.330Z,6.57
2023-07-05T11:16:43.955Z,5.07
2023-07-05T11:20:23.988Z,5.38
2023-07-05T11:23:55.912Z,5.45
2023-07-05T11:26:55.733Z,5.55
2023-07-05T11:30:42.670Z,5.18
2023-07-05T11:34:28.182Z,5.20
2023-07-05T11:38:09.471Z,5.65
2023-07-05T11:41:28.386Z,5.57
2023-07-05T11:44:37.289Z,4.18
2023-07-05T11:47:12.735Z,5.10
2023-07-05T11:50:06.282Z,5.82
2023-07-05T11:52:40.579Z,5.75
2023-07-05T11:55:17.877Z,5.70
2023-07-05T11:57:54.753Z,8.40
2023-07-05T12:00:40.970Z,8.55
2023-07-05T12:03:20.766Z,5.95
2023-07-05T12:05:58.090Z,5.65
2023-07-05T12:09:31.119Z,5.80
2023-07-05T12:12:52.314Z,6.25
2023-07-05T12:16:17.881Z,5.95
2023-07-05T12:19:39.224Z,6.72
2023-07-05T12:23:05.096Z,6.60
2023-07-05T12:26:31.281Z,6.82
2023-07-05T12:29:55.161Z,6.13
2023-07-05T12:33:21.951Z,5.75
2023-07-05T12:37:02.443Z,5.72
2023-07-05T12:40:31.566Z,6.05
2023-07-05T12:44:00.627Z,5.78
2023-07-05T12:47:23.778Z,5.38
2023-07-05T12:51:03.381Z,4.80
2023-07-05T12:54:25.550Z,5.15
2023-07-05T12:57:51.005Z,4.95
2023-07-05T13:00:25.392Z,5.15
2023-07-05T13:03:29.469Z,4.78
2023-07-05T13:06:53.735Z,4.65
2023-07-05T13:10:22.941Z,5.38
2023-07-05T13:13:47.553Z,6.30
2023-07-05T13:17:18.713Z,8.15
2023-07-05T13:20:43.033Z,7.25
2023-07-05T13:24:04.515Z,6.10
2023-07-05T13:27:31.345Z,5.35
2023-07-05T13:31:05.040Z,4.88
2023-07-05T13:34:30.456Z,5.20
2023-07-05T13:37:57.454Z,6.70
2023-07-05T13:40:52.103Z,8.10
2023-07-05T13:44:13.959Z,7.30
2023-07-05T13:47:35.207Z,5.80
2023-07-05T13:50:34.156Z,5.30
2023-07-05T13:53:56.128Z,5.13
2023-07-05T13:57:18.625Z,4.28
2023-07-05T14:00:40.497Z,4.47
2023-07-05T14:04:01.941Z,4.88
2023-07-05T14:07:25.899Z,5.05
2023-07-05T14:10:49.012Z,7.32
2023-07-05T14:14:13.237Z,4.95
2023-07-05T14:17:35.829Z,5.45
2023-07-05T14:20:57.490Z,5.30
2023-07-05T14:24:20.338Z,5.60
2023-07-05T14:27:41.553Z,5.20
2023-07-05T14:31:04.427Z,8.60
2023-07-05T14:34:25.997Z,7.45
2023-07-05T14:37:48.285Z,5.15
2023-07-05T14:41:13.172Z,4.40
2023-07-05T14:44:34.394Z,4.22
2023-07-05T14:47:56.303Z,5.65
2023-07-05T14:51:20.462Z,4.85
2023-07-05T14:54:41.658Z,3.70
2023-07-05T14:58:10.571Z,4.10
2023-07-05T15:01:32.491Z,3.70
2023-07-05T15:04:48.689Z,3.10
2023-07-05T15:08:12.397Z,3.42
2023-07-05T15:11:33.611Z,3.28
2023-07-05T15:14:56.497Z,3.70
2023-07-05T15:18:17.730Z,3.15
2023-07-05T15:21:40.248Z,3.42
2023-07-05T15:25:01.921Z,3.65
2023-07-05T15:28:23.393Z,4.18
2023-07-05T15:31:48.151Z,3.53
2023-07-05T15:35:11.712Z,3.08
2023-07-05T15:38:33.042Z,3.55
2023-07-05T15:41:57.274Z,3.50
2023-07-05T15:45:19.239Z,3.42
2023-07-05T15:48:43.440Z,2.97
2023-07-05T15:52:06.156Z,2.97
2023-07-05T15:55:28.449Z,2.22
2023-07-05T15:58:21.066Z,3.03
2023-07-05T16:01:42.824Z,3.08
2023-07-05T16:05:05.987Z,5.00
2023-07-05T16:08:28.748Z,4.47
2023-07-05T16:11:52.508Z,4.82
2023-07-05T16:15:16.049Z,2.53
2023-07-05T16:18:36.913Z,2.58
2023-07-05T16:21:59.432Z,2.75
2023-07-05T16:25:21.132Z,3.00
2023-07-05T16:28:42.466Z,2.65
2023-07-05T16:32:04.521Z,2.78
2023-07-05T16:35:26.149Z,3.03
2023-07-05T16:38:49.098Z,3.08
2023-07-05T16:42:10.356Z,3.33
2023-07-05T16:45:32.348Z,3.17
2023-07-05T16:48:52.189Z,3.45
2023-07-05T16:52:13.592Z,3.30
2023-07-05T16:55:38.697Z,3.55
2023-07-05T16:59:00.019Z,3.85
2023-07-05T17:02:21.858Z,3.70
2023-07-05T17:05:43.488Z,3.53
2023-07-05T17:08:12.826Z,3.38
2023-07-05T17:11:35.962Z,3.47
2023-07-05T17:14:57.594Z,3.85
2023-07-05T17:18:20.740Z,3.97
2023-07-05T17:21:44.078Z,3.85
2023-07-05T17:25:06.131Z,3.60
2023-07-05T17:28:30.338Z,3.78
2023-07-05T17:31:57.952Z,3.75
2023-07-05T17:34:42.146Z,3.50
2023-07-05T17:38:03.807Z,3.85
2023-07-05T17:41:26.042Z,4.50
2023-07-05T17:44:49.376Z,4.18
2023-07-05T17:48:11.304Z,7.65
2023-07-05T17:51:33.724Z,6.88
2023-07-05T17:54:55.990Z,3.88
2023-07-05T17:58:18.359Z,4.40
2023-07-05T18:01:43.233Z,3.88
2023-07-05T18:05:07.556Z,4.00
2023-07-05T18:08:29.173Z,3.95
2023-07-05T18:11:53.550Z,3.75
2023-07-05T18:15:15.199Z,3.83
2023-07-05T18:18:38.312Z,4.05
2023-07-05T18:22:01.226Z,3.58
2023-07-05T18:25:23.462Z,3.42
2023-07-05T18:28:45.563Z,4.25
2023-07-05T18:32:07.340Z,5.10
2023-07-05T18:35:33.671Z,3.95
2023-07-05T18:38:55.198Z,4.05
2023-07-05T18:42:17.172Z,3.63
2023-07-05T18:45:41.032Z,3.65
2023-07-05T18:49:02.595Z,3.45
2023-07-05T18:52:11.174Z,3.45
2023-07-05T18:55:32.705Z,3.53
2023-07-05T18:58:56.196Z,2.75
2023-07-05T19:02:17.837Z,2.47
2023-07-05T19:05:40.112Z,2.55
2023-07-05T19:09:03.082Z,2.22
2023-07-05T19:12:25.021Z,5.22
2023-07-05T19:15:48.259Z,7.85
2023-07-05T19:19:10.547Z,8.35
2023-07-05T19:22:32.572Z,1.95
2023-07-05T19:25:57.566Z,1.80
2023-07-05T19:29:22.264Z,2.03
2023-07-05T19:32:43.704Z,1.55
2023-07-05T19:36:05.399Z,1.90
2023-07-05T19:39:29.143Z,2.13
2023-07-05T19:42:52.112Z,1.60
2023-07-05T19:46:15.558Z,1.65
2023-07-05T19:49:37.568Z,1.63
2023-07-05T19:53:02.709Z,4.50
2023-07-05T19:56:26.369Z,3.05
2023-07-05T19:59:52.752Z,6.18
2023-07-05T20:03:15.276Z,1.80
2023-07-05T20:06:05.247Z,1.88
2023-07-05T20:09:27.064Z,2.17
2023-07-05T20:12:48.432Z,1.88
2023-07-05T20:15:59.117Z,2.20
2023-07-05T20:19:22.627Z,2.17
2023-07-05T20:21:52.026Z,1.77
2023-07-05T20:24:49.098Z,1.90
2023-07-05T20:28:11.708Z,1.83
2023-07-05T20:31:16.449Z,1.83
2023-07-05T20:34:40.416Z,2.20
2023-07-05T20:38:05.212Z,1.73
2023-07-05T20:41:22.646Z,2.28
2023-07-05T20:44:44.074Z,2.10
2023-07-05T20:48:07.140Z,2.22
2023-07-05T20:51:32.686Z,2.00
2023-07-05T20:54:55.859Z,2.10
2023-07-05T20:58:18.426Z,2.33
2023-07-05T21:01:40.369Z,2.03
2023-07-05T21:05:04.921Z,2.28
2023-07-05T21:08:26.923Z,2.47
2023-07-05T21:11:48.363Z,2.42
2023-07-05T21:15:10.195Z,2.33
2023-07-05T21:18:31.368Z,2.50
2023-07-05T21:21:54.321Z,2.40
2023-07-05T21:25:15.497Z,2.42
2023-07-05T21:28:36.640Z,2.60
2023-07-05T21:31:59.357Z,2.55
2023-07-05T21:35:21.122Z,2.70
2023-07-05T21:38:43.626Z,2.33
2023-07-05T21:42:08.223Z,2.50
2023-07-05T21:45:29.428Z,2.20
2023-07-05T21:48:50.668Z,2.75
2023-07-05T21:52:11.776Z,2.25
2023-07-05T21:55:34.478Z,2.20
2023-07-05T21:58:59.694Z,2.75
2023-07-05T22:02:21.536Z,2.70
2023-07-05T22:05:42.754Z,2.58
2023-07-05T22:09:03.884Z,2.47
2023-07-05T22:12:27.085Z,2.30
2023-07-05T22:15:48.558Z,2.40
2023-07-05T22:19:10.867Z,2.80
2023-07-05T22:22:32.134Z,2.30
2023-07-05T22:25:56.625Z,2.28
2023-07-05T22:29:22.983Z,2.45
2023-07-05T22:32:45.650Z,2.20
2023-07-05T22:36:07.601Z,2.22
2023-07-05T22:39:28.802Z,2.40
2023-07-05T22:42:50.872Z,2.63
2023-07-05T22:46:13.956Z,2.22
2023-07-05T22:49:36.058Z,2.50
2023-07-05T22:52:58.826Z,2.55
2023-07-05T22:56:20.174Z,2.42
2023-07-05T22:59:42.738Z,2.47
2023-07-05T23:03:05.642Z,3.08
2023-07-05T23:06:27.016Z,2.88
2023-07-05T23:09:48.096Z,2.65
2023-07-05T23:13:09.222Z,2.63
2023-07-05T23:16:31.439Z,2.53
2023-07-05T23:19:53.943Z,2.55
2023-07-05T23:23:16.202Z,2.42
2023-07-05T23:26:40.054Z,2.35
2023-07-05T23:30:02.785Z,2.72
2023-07-05T23:33:23.921Z,2.30
2023-07-05T23:36:48.233Z,2.60
2023-07-05T23:39:51.859Z,2.40
2023-07-05T23:43:12.998Z,2.58
2023-07-05T23:46:34.484Z,2.67
2023-07-05T23:49:58.233Z,2.97
2023-07-05T23:53:22.080Z,3.17
2023-07-05T23:56:48.389Z,3.75
